sensor_id;sensor_type;location;lat;lon;timestamp;temperature;humidity
63407;SHT31;49543;45.892;10.838;2023-10-19T07:45:14;13.43;98.80
63407;SHT31;49543;45.892;10.838;2023-10-19T07:47:41;13.43;98.87
63407;SHT31;49543;45.892;10.838;2023-10-19T09:22:11;13.79;99.20
63407;SHT31;49543;45.892;10.838;2023-10-19T09:24:49;13.82;99.15
63407;SHT31;49543;45.892;10.838;2023-10-19T09:27:21;13.85;99.13
63407;SHT31;49543;45.892;10.838;2023-10-19T09:29:50;13.83;99.05
63407;SHT31;49543;45.892;10.838;2023-10-19T09:32:18;13.85;98.94
63407;SHT31;49543;45.892;10.838;2023-10-19T09:34:44;13.85;98.78
63407;SHT31;49543;45.892;10.838;2023-10-19T09:37:11;13.86;98.61
63407;SHT31;49543;45.892;10.838;2023-10-19T09:39:38;13.86;98.61
63407;SHT31;49543;45.892;10.838;2023-10-19T09:42:09;13.87;98.60
63407;SHT31;49543;45.892;10.838;2023-10-19T09:44:47;13.85;98.58
63407;SHT31;49543;45.892;10.838;2023-10-19T09:47:39;13.87;98.58
63407;SHT31;49543;45.892;10.838;2023-10-19T09:50:06;13.87;98.58
63407;SHT31;49543;45.892;10.838;2023-10-19T09:52:36;13.87;98.45
63407;SHT31;49543;45.892;10.838;2023-10-19T09:55:19;13.86;98.43
63407;SHT31;49543;45.892;10.838;2023-10-19T09:58:19;13.89;98.45
63407;SHT31;49543;45.892;10.838;2023-10-19T10:00:48;13.90;98.43
63407;SHT31;49543;45.892;10.838;2023-10-19T10:06:10;13.95;98.35
63407;SHT31;49543;45.892;10.838;2023-10-19T10:08:38;13.95;98.37
63407;SHT31;49543;45.892;10.838;2023-10-19T10:11:36;13.96;98.52
63407;SHT31;49543;45.892;10.838;2023-10-19T10:14:21;13.96;98.52
63407;SHT31;49543;45.892;10.838;2023-10-19T10:16:59;13.96;98.48
63407;SHT31;49543;45.892;10.838;2023-10-19T10:19:26;13.96;98.52
63407;SHT31;49543;45.892;10.838;2023-10-19T10:24:40;13.96;98.80
63407;SHT31;49543;45.892;10.838;2023-10-19T10:27:06;13.98;98.80
63407;SHT31;49543;45.892;10.838;2023-10-19T10:29:32;13.95;98.81
63407;SHT31;49543;45.892;10.838;2023-10-19T10:31:58;13.89;98.52
63407;SHT31;49543;45.892;10.838;2023-10-19T10:37:03;13.86;98.71
63407;SHT31;49543;45.892;10.838;2023-10-19T10:39:29;13.86;98.81
63407;SHT31;49543;45.892;10.838;2023-10-19T10:42:01;13.83;98.84
63407;SHT31;49543;45.892;10.838;2023-10-19T10:44:47;13.82;98.93
63407;SHT31;49543;45.892;10.838;2023-10-19T10:47:23;13.82;98.94
63407;SHT31;49543;45.892;10.838;2023-10-19T10:49:58;13.82;98.98
63407;SHT31;49543;45.892;10.838;2023-10-19T10:52:28;13.83;99.07
63407;SHT31;49543;45.892;10.838;2023-10-19T10:55:07;13.82;99.20
63407;SHT31;49543;45.892;10.838;2023-10-19T10:57:36;13.82;99.25
63407;SHT31;49543;45.892;10.838;2023-10-19T11:00:09;13.85;99.41
63407;SHT31;49543;45.892;10.838;2023-10-19T11:02:46;13.82;99.48
63407;SHT31;49543;45.892;10.838;2023-10-19T11:05:14;13.83;99.52
63407;SHT31;49543;45.892;10.838;2023-10-19T11:08:07;13.86;99.38
63407;SHT31;49543;45.892;10.838;2023-10-19T11:10:34;13.86;99.33
63407;SHT31;49543;45.892;10.838;2023-10-19T11:13:09;13.87;99.33
63407;SHT31;49543;45.892;10.838;2023-10-19T11:15:35;13.87;99.46
63407;SHT31;49543;45.892;10.838;2023-10-19T11:18:05;13.86;99.54
63407;SHT31;49543;45.892;10.838;2023-10-19T11:20:34;13.90;99.59
63407;SHT31;49543;45.892;10.838;2023-10-19T11:23:00;13.89;99.59
63407;SHT31;49543;45.892;10.838;2023-10-19T11:25:27;13.87;99.63
63407;SHT31;49543;45.892;10.838;2023-10-19T11:28:00;13.92;99.64
63407;SHT31;49543;45.892;10.838;2023-10-19T11:30:28;13.89;99.76
63407;SHT31;49543;45.892;10.838;2023-10-19T11:32:55;13.87;99.73
63407;SHT31;49543;45.892;10.838;2023-10-19T11:35:25;13.87;99.80
63407;SHT31;49543;45.892;10.838;2023-10-19T11:37:54;13.87;99.82
63407;SHT31;49543;45.892;10.838;2023-10-19T11:40:20;13.87;99.84
63407;SHT31;49543;45.892;10.838;2023-10-19T11:42:51;13.87;99.83
63407;SHT31;49543;45.892;10.838;2023-10-19T16:58:47;14.01;99.99
63407;SHT31;49543;45.892;10.838;2023-10-19T17:01:12;13.99;99.99
63407;SHT31;49543;45.892;10.838;2023-10-19T17:03:39;13.99;99.99
63407;SHT31;49543;45.892;10.838;2023-10-19T17:06:09;13.99;99.99
63407;SHT31;49543;45.892;10.838;2023-10-19T17:08:35;13.99;99.99
63407;SHT31;49543;45.892;10.838;2023-10-19T17:11:01;13.99;99.99
63407;SHT31;49543;45.892;10.838;2023-10-19T17:13:30;13.99;99.99
63407;SHT31;49543;45.892;10.838;2023-10-19T17:15:56;13.98;99.99
63407;SHT31;49543;45.892;10.838;2023-10-19T17:18:22;13.96;99.99
63407;SHT31;49543;45.892;10.838;2023-10-19T17:20:47;13.96;99.99
63407;SHT31;49543;45.892;10.838;2023-10-19T17:23:13;13.99;99.99
63407;SHT31;49543;45.892;10.838;2023-10-19T17:25:38;14.01;99.99
63407;SHT31;49543;45.892;10.838;2023-10-19T17:28:06;13.99;99.99
63407;SHT31;49543;45.892;10.838;2023-10-19T17:30:32;14.01;99.99
63407;SHT31;49543;45.892;10.838;2023-10-19T17:32:59;13.99;99.99
63407;SHT31;49543;45.892;10.838;2023-10-19T17:35:25;13.99;99.99
63407;SHT31;49543;45.892;10.838;2023-10-19T17:37:50;14.01;99.99
63407;SHT31;49543;45.892;10.838;2023-10-19T17:40:16;13.98;99.99
63407;SHT31;49543;45.892;10.838;2023-10-19T17:42:41;13.95;99.99
63407;SHT31;49543;45.892;10.838;2023-10-19T17:45:08;13.95;99.99
63407;SHT31;49543;45.892;10.838;2023-10-19T17:47:34;13.95;99.99
63407;SHT31;49543;45.892;10.838;2023-10-19T17:50:04;13.93;99.99
63407;SHT31;49543;45.892;10.838;2023-10-19T17:52:29;13.93;99.99
63407;SHT31;49543;45.892;10.838;2023-10-19T17:54:55;13.90;99.99
63407;SHT31;49543;45.892;10.838;2023-10-19T17:57:21;13.90;99.99
63407;SHT31;49543;45.892;10.838;2023-10-19T17:59:47;13.89;99.99
63407;SHT31;49543;45.892;10.838;2023-10-19T18:02:12;13.93;99.99
63407;SHT31;49543;45.892;10.838;2023-10-19T18:04:38;13.92;99.99
63407;SHT31;49543;45.892;10.838;2023-10-19T18:07:03;13.92;99.99
63407;SHT31;49543;45.892;10.838;2023-10-19T18:09:29;13.92;99.99
63407;SHT31;49543;45.892;10.838;2023-10-19T18:11:57;13.92;99.99
63407;SHT31;49543;45.892;10.838;2023-10-19T18:14:22;13.92;99.99
63407;SHT31;49543;45.892;10.838;2023-10-19T18:16:48;13.90;99.99
63407;SHT31;49543;45.892;10.838;2023-10-19T18:19:13;13.92;99.99
63407;SHT31;49543;45.892;10.838;2023-10-19T18:21:39;13.93;99.99
63407;SHT31;49543;45.892;10.838;2023-10-19T18:24:05;13.93;99.99
63407;SHT31;49543;45.892;10.838;2023-10-19T18:26:36;13.95;99.99
63407;SHT31;49543;45.892;10.838;2023-10-19T18:29:03;13.95;99.99
63407;SHT31;49543;45.892;10.838;2023-10-19T18:31:29;13.98;99.99
63407;SHT31;49543;45.892;10.838;2023-10-19T18:33:58;13.98;99.99
63407;SHT31;49543;45.892;10.838;2023-10-19T18:36:24;13.98;99.99
63407;SHT31;49543;45.892;10.838;2023-10-19T18:38:50;13.98;99.99
63407;SHT31;49543;45.892;10.838;2023-10-19T18:41:16;13.99;99.99
63407;SHT31;49543;45.892;10.838;2023-10-19T18:43:42;13.95;99.99
63407;SHT31;49543;45.892;10.838;2023-10-19T18:46:11;13.96;99.99
63407;SHT31;49543;45.892;10.838;2023-10-19T18:48:36;13.96;99.99
63407;SHT31;49543;45.892;10.838;2023-10-19T18:51:06;13.96;99.99
63407;SHT31;49543;45.892;10.838;2023-10-19T18:53:33;13.98;99.99
63407;SHT31;49543;45.892;10.838;2023-10-19T18:56:00;13.98;99.99
63407;SHT31;49543;45.892;10.838;2023-10-19T18:58:26;13.98;99.99
63407;SHT31;49543;45.892;10.838;2023-10-19T19:01:00;13.95;99.99
63407;SHT31;49543;45.892;10.838;2023-10-19T19:03:27;13.96;99.99
63407;SHT31;49543;45.892;10.838;2023-10-19T19:05:58;13.98;99.99
63407;SHT31;49543;45.892;10.838;2023-10-19T19:08:28;13.99;99.99
63407;SHT31;49543;45.892;10.838;2023-10-19T19:10:57;13.98;99.99
63407;SHT31;49543;45.892;10.838;2023-10-19T19:13:23;13.99;99.99
63407;SHT31;49543;45.892;10.838;2023-10-19T19:15:49;14.01;99.99
63407;SHT31;49543;45.892;10.838;2023-10-19T19:18:16;14.01;99.99
63407;SHT31;49543;45.892;10.838;2023-10-19T19:20:42;13.99;99.99
63407;SHT31;49543;45.892;10.838;2023-10-19T19:23:07;13.99;99.99
63407;SHT31;49543;45.892;10.838;2023-10-19T19:25:34;13.98;99.99
63407;SHT31;49543;45.892;10.838;2023-10-19T19:27:59;13.98;99.99
63407;SHT31;49543;45.892;10.838;2023-10-19T19:30:25;13.96;99.99
63407;SHT31;49543;45.892;10.838;2023-10-19T19:32:51;13.98;99.99
63407;SHT31;49543;45.892;10.838;2023-10-19T19:35:16;13.96;99.99
63407;SHT31;49543;45.892;10.838;2023-10-19T19:37:43;13.99;99.99
63407;SHT31;49543;45.892;10.838;2023-10-19T19:40:10;13.98;99.99
63407;SHT31;49543;45.892;10.838;2023-10-19T19:42:46;14.01;99.99
63407;SHT31;49543;45.892;10.838;2023-10-19T19:45:13;14.01;99.99
63407;SHT31;49543;45.892;10.838;2023-10-19T19:47:40;14.01;99.99
63407;SHT31;49543;45.892;10.838;2023-10-19T19:50:06;13.98;99.99
63407;SHT31;49543;45.892;10.838;2023-10-19T19:52:34;14.01;99.99
63407;SHT31;49543;45.892;10.838;2023-10-19T19:55:06;14.01;99.99
63407;SHT31;49543;45.892;10.838;2023-10-19T19:57:33;13.99;99.99
63407;SHT31;49543;45.892;10.838;2023-10-19T19:59:59;14.03;99.99
63407;SHT31;49543;45.892;10.838;2023-10-19T20:02:25;14.01;99.99
63407;SHT31;49543;45.892;10.838;2023-10-19T20:04:51;14.01;99.99
63407;SHT31;49543;45.892;10.838;2023-10-19T20:07:17;13.99;99.99
63407;SHT31;49543;45.892;10.838;2023-10-19T20:09:42;14.02;99.99
63407;SHT31;49543;45.892;10.838;2023-10-19T20:12:08;14.02;99.99
63407;SHT31;49543;45.892;10.838;2023-10-19T20:14:36;14.01;99.99
63407;SHT31;49543;45.892;10.838;2023-10-19T20:17:01;14.03;99.99
63407;SHT31;49543;45.892;10.838;2023-10-19T20:19:27;14.02;99.99
63407;SHT31;49543;45.892;10.838;2023-10-19T20:21:52;14.05;99.99
63407;SHT31;49543;45.892;10.838;2023-10-19T20:24:17;14.02;99.99
63407;SHT31;49543;45.892;10.838;2023-10-19T20:26:43;14.03;99.99
63407;SHT31;49543;45.892;10.838;2023-10-19T20:29:08;14.03;99.99
63407;SHT31;49543;45.892;10.838;2023-10-19T20:31:34;14.05;99.99
63407;SHT31;49543;45.892;10.838;2023-10-19T20:33:59;14.02;99.99
63407;SHT31;49543;45.892;10.838;2023-10-19T20:36:25;14.05;99.99
63407;SHT31;49543;45.892;10.838;2023-10-19T20:38:51;14.05;99.99
63407;SHT31;49543;45.892;10.838;2023-10-19T20:41:18;14.03;99.99
63407;SHT31;49543;45.892;10.838;2023-10-19T20:43:44;14.05;99.99
63407;SHT31;49543;45.892;10.838;2023-10-19T20:46:09;14.08;99.99
63407;SHT31;49543;45.892;10.838;2023-10-19T20:48:35;14.05;99.99
63407;SHT31;49543;45.892;10.838;2023-10-19T20:51:00;14.08;99.99
63407;SHT31;49543;45.892;10.838;2023-10-19T20:53:27;14.08;99.99
63407;SHT31;49543;45.892;10.838;2023-10-19T20:55:59;14.10;99.99
63407;SHT31;49543;45.892;10.838;2023-10-19T20:58:24;14.10;99.99
63407;SHT31;49543;45.892;10.838;2023-10-19T21:00:51;14.13;99.99
63407;SHT31;49543;45.892;10.838;2023-10-19T21:03:16;14.12;99.99
63407;SHT31;49543;45.892;10.838;2023-10-19T21:05:42;14.13;99.99
63407;SHT31;49543;45.892;10.838;2023-10-19T21:08:07;14.14;99.99
63407;SHT31;49543;45.892;10.838;2023-10-19T21:10:33;14.12;99.99
63407;SHT31;49543;45.892;10.838;2023-10-19T21:12:59;14.13;99.99
63407;SHT31;49543;45.892;10.838;2023-10-19T21:15:25;14.14;99.99
63407;SHT31;49543;45.892;10.838;2023-10-19T21:17:51;14.13;99.99
63407;SHT31;49543;45.892;10.838;2023-10-19T21:20:20;14.13;99.99
63407;SHT31;49543;45.892;10.838;2023-10-19T21:22:47;14.12;99.99
63407;SHT31;49543;45.892;10.838;2023-10-19T21:25:15;14.13;99.99
63407;SHT31;49543;45.892;10.838;2023-10-19T21:27:41;14.14;99.99
63407;SHT31;49543;45.892;10.838;2023-10-19T21:30:08;14.16;99.99
63407;SHT31;49543;45.892;10.838;2023-10-19T21:32:40;14.14;99.99
63407;SHT31;49543;45.892;10.838;2023-10-19T21:35:07;14.14;99.99
63407;SHT31;49543;45.892;10.838;2023-10-19T21:37:32;14.14;99.99
63407;SHT31;49543;45.892;10.838;2023-10-19T21:39:59;14.14;99.99
63407;SHT31;49543;45.892;10.838;2023-10-19T21:42:25;14.14;99.99
63407;SHT31;49543;45.892;10.838;2023-10-19T21:44:50;14.13;99.99
63407;SHT31;49543;45.892;10.838;2023-10-19T21:47:16;14.14;99.99
63407;SHT31;49543;45.892;10.838;2023-10-19T21:49:50;14.16;99.99
63407;SHT31;49543;45.892;10.838;2023-10-19T21:52:16;14.14;99.99
63407;SHT31;49543;45.892;10.838;2023-10-19T21:54:49;14.17;99.99
63407;SHT31;49543;45.892;10.838;2023-10-19T21:57:15;14.16;99.99
63407;SHT31;49543;45.892;10.838;2023-10-19T21:59:42;14.17;99.99
63407;SHT31;49543;45.892;10.838;2023-10-19T22:02:08;14.14;99.99
63407;SHT31;49543;45.892;10.838;2023-10-19T22:04:35;14.13;99.99
63407;SHT31;49543;45.892;10.838;2023-10-19T22:07:00;14.14;99.99
63407;SHT31;49543;45.892;10.838;2023-10-19T22:09:28;14.16;99.99
63407;SHT31;49543;45.892;10.838;2023-10-19T22:11:56;14.17;99.99
63407;SHT31;49543;45.892;10.838;2023-10-19T22:14:22;14.17;99.99
63407;SHT31;49543;45.892;10.838;2023-10-19T22:16:48;14.16;99.99
63407;SHT31;49543;45.892;10.838;2023-10-19T22:19:13;14.17;99.99
63407;SHT31;49543;45.892;10.838;2023-10-19T22:21:39;14.17;99.99
63407;SHT31;49543;45.892;10.838;2023-10-19T22:24:05;14.22;99.99
63407;SHT31;49543;45.892;10.838;2023-10-19T22:26:33;14.17;99.99
63407;SHT31;49543;45.892;10.838;2023-10-19T22:28:58;14.17;99.99
63407;SHT31;49543;45.892;10.838;2023-10-19T22:31:24;14.22;99.99
63407;SHT31;49543;45.892;10.838;2023-10-19T22:33:49;14.20;99.99
63407;SHT31;49543;45.892;10.838;2023-10-19T22:36:15;14.22;99.99
63407;SHT31;49543;45.892;10.838;2023-10-19T22:38:40;14.22;99.99
63407;SHT31;49543;45.892;10.838;2023-10-19T22:41:06;14.20;99.99
